| time (UTC) | temp C | wind direction | speed KPH | gust KPH | rain 1hr cm | rain 24hr cm | rain mn cm | humidity % | barometer mb |
| 20260503004022 | 19 | 191 | 1.6 | 3.2 | 0.00 | 0.00 | 0.00 | 38 | 1020.1 |
| 20260503003025 | 20 | 277 | 3.2 | 6.4 | 0.00 | 0.00 | 0.00 | 37 | 1020.0 |
| 20260503002029 | 20 | 282 | 1.6 | 4.8 | 0.00 | 0.00 | 0.00 | 35 | 1019.9 |
| 20260503001032 | 21 | 264 | 4.8 | 9.7 | 0.00 | 0.00 | 0.00 | 33 | 1019.7 |
| 20260503000017 | 22 | 124 | 1.6 | 6.4 | 0.00 | 0.00 | 0.00 | 33 | 1019.6 |
| 20260502235020 | 22 | 266 | 6.4 | 14.5 | 0.00 | 0.00 | 0.00 | 31 | 1019.5 |
| 20260502234023 | 23 | 286 | 3.2 | 6.4 | 0.00 | 0.00 | 0.00 | 30 | 1019.5 |
| 20260502233026 | 24 | 245 | 6.4 | 9.7 | 0.00 | 0.00 | 0.00 | 29 | 1019.5 |
| 20260502232029 | 24 | 215 | 3.2 | 8.0 | 0.00 | 0.00 | 0.00 | 29 | 1019.4 |
| 20260502231027 | 24 | 299 | 6.4 | 12.9 | 0.00 | 0.00 | 0.00 | 29 | 1019.4 |
| 20260502230018 | 26 | 274 | 4.8 | 8.0 | 0.00 | 0.00 | 0.00 | 28 | 1019.3 |
| 20260502225021 | 26 | 283 | 3.2 | 8.0 | 0.00 | 0.00 | 0.00 | 29 | 1019.3 |
| 20260502224018 | 26 | 268 | 6.4 | 11.3 | 0.00 | 0.00 | 0.00 | 29 | 1019.4 |
| 20260502212031 | 25 | 281 | 6.4 | 11.3 | 0.00 | 0.00 | 0.00 | 30 | 1019.4 |
| 20260502211016 | 24 | 228 | 8.0 | 9.7 | 0.00 | 0.00 | 0.00 | 30 | 1019.4 |
| 20260502210019 | 23 | 271 | 11.3 | 17.7 | 0.00 | 0.00 | 0.00 | 30 | 1019.4 |
| 20260502205022 | 23 | 270 | 11.3 | 16.1 | 0.00 | 0.00 | 0.00 | 33 | 1019.5 |
| 20260502204025 | 23 | 267 | 8.0 | 11.3 | 0.00 | 0.00 | 0.00 | 34 | 1019.7 |
| 20260502203029 | 22 | 257 | 8.0 | 14.5 | 0.00 | 0.00 | 0.00 | 35 | 1019.8 |
| 20260502202033 | 23 | 273 | 6.4 | 9.7 | 0.00 | 0.00 | 0.00 | 34 | 1019.8 |
| 20260502201017 | 22 | 271 | 8.0 | 12.9 | 0.00 | 0.00 | 0.00 | 35 | 1019.8 |
| 20260502200020 | 22 | 268 | 8.0 | 12.9 | 0.00 | 0.00 | 0.00 | 35 | 1019.9 |
| 20260502195044 | 22 | 262 | 4.8 | 8.0 | 0.00 | 0.00 | 0.00 | 36 | 1020.0 |
| 20260502194047 | 22 | 265 | 4.8 | 8.0 | 0.00 | 0.00 | 0.00 | 35 | 1020.1 |
| 20260502193024 | 22 | 277 | 8.0 | 12.9 | 0.00 | 0.00 | 0.00 | 34 | 1020.1 |
| 20260502192015 | 25 | 272 | 8.0 | 14.5 | 0.00 | 0.00 | 0.00 | 33 | 1020.1 |
| 20260502191018 | 23 | 256 | 9.7 | 19.3 | 0.00 | 0.00 | 0.00 | 34 | 1020.1 |
| 20260502190015 | 23 | 288 | 8.0 | 14.5 | 0.00 | 0.00 | 0.00 | 34 | 1020.4 |
| 20260502185025 | 23 | 307 | 8.0 | 11.3 | 0.00 | 0.00 | 0.00 | 33 | 1020.4 |
| 20260502184028 | 22 | 284 | 8.0 | 17.7 | 0.00 | 0.00 | 0.00 | 33 | 1020.5 |
| 20260502183031 | 23 | 270 | 4.8 | 9.7 | 0.00 | 0.00 | 0.00 | 34 | 1020.6 |
| 20260502182016 | 23 | 263 | 9.7 | 16.1 | 0.00 | 0.00 | 0.00 | 32 | 1020.7 |
| 20260502181019 | 23 | 293 | 9.7 | 14.5 | 0.00 | 0.00 | 0.00 | 32 | 1020.8 |
| 20260502164029 | 23 | 280 | 6.4 | 11.3 | 0.00 | 0.00 | 0.00 | 33 | 1021.6 |
| 20260502163032 | 22 | 277 | 6.4 | 14.5 | 0.00 | 0.00 | 0.00 | 33 | 1021.6 |
| 20260502162017 | 23 | 288 | 6.4 | 11.3 | 0.00 | 0.00 | 0.00 | 34 | 1021.7 |
| 20260502161021 | 22 | 283 | 6.4 | 9.7 | 0.00 | 0.00 | 0.00 | 34 | 1021.7 |
| 20260502151021 | 22 | 273 | 1.6 | 4.8 | 0.00 | 0.00 | 0.00 | 36 | 1021.7 |
| 20260502123043 | 7 | 0.0 | 0.0 | 0.00 | 0.00 | 0.00 | 92 | 1020.7 | |
| 20260502122020 | 6 | 0.0 | 0.0 | 0.00 | 0.00 | 0.00 | 93 | 1020.6 | |
| 20260502121017 | 6 | 0.0 | 0.0 | 0.00 | 0.00 | 0.00 | 93 | 1020.5 | |
| 20260502115023 | 6 | 0.0 | 0.0 | 0.00 | 0.00 | 0.00 | 95 | 1020.4 | |
| 20260502114026 | 5 | 0.0 | 0.0 | 0.00 | 0.00 | 0.00 | 93 | 1020.3 | |
| 20260502113029 | 5 | 0.0 | 0.0 | 0.00 | 0.00 | 0.00 | 92 | 1020.1 | |
| 20260502112052 | 5 | 0.0 | 0.0 | 0.00 | 0.00 | 0.00 | 92 | 1020.2 | |
| 20260502111017 | 5 | 0.0 | 0.0 | 0.00 | 0.00 | 0.00 | 92 | 1020.2 | |
| 20260502110021 | 5 | 0.0 | 0.0 | 0.00 | 0.00 | 0.00 | 93 | 1020.0 | |
| 20260502105024 | 6 | 0.0 | 0.0 | 0.00 | 0.00 | 0.00 | 90 | 1019.7 | |
| 20260502104107 | 6 | 0.0 | 0.0 | 0.00 | 0.00 | 0.00 | 88 | 1019.7 | |
| 20260502103030 | 6 | 0.0 | 0.0 | 0.00 | 0.00 | 0.00 | 87 | 1019.7 | |
| 20260502102015 | 6 | 0.0 | 0.0 | 0.00 | 0.00 | 0.00 | 87 | 1019.7 | |
| 20260502101019 | 6 | 0.0 | 0.0 | 0.00 | 0.00 | 0.00 | 86 | 1019.7 | |
| 20260502091019 | 7 | 0.0 | 0.0 | 0.00 | 0.00 | 0.00 | 80 | 1019.5 | |
| 20260502071021 | 12 | 0.0 | 0.0 | 0.00 | 0.00 | 0.00 | 60 | 1019.6 | |
| 20260502070024 | 12 | 0.0 | 0.0 | 0.00 | 0.00 | 0.00 | 59 | 1019.5 | |
| 20260502065027 | 12 | 0.0 | 1.6 | 0.00 | 0.00 | 0.00 | 58 | 1019.6 | |
| 20260502064050 | 12 | 290 | 1.6 | 3.2 | 0.00 | 0.00 | 0.00 | 57 | 1019.9 |
| 20260502063015 | 12 | 0.0 | 3.2 | 0.00 | 0.00 | 0.00 | 56 | 1020.0 | |
| 20260502062018 | 13 | 263 | 1.6 | 3.2 | 0.00 | 0.00 | 0.00 | 55 | 1020.1 |
| 20260502061022 | 13 | 291 | 3.2 | 6.4 | 0.00 | 0.00 | 0.00 | 55 | 1020.2 |
| 20260502060025 | 13 | 303 | 1.6 | 3.2 | 0.00 | 0.00 | 0.00 | 55 | 1020.0 |
| 20260502055028 | 13 | 280 | 3.2 | 4.8 | 0.00 | 0.00 | 0.00 | 54 | 1020.0 |
| 20260502053016 | 13 | 288 | 3.2 | 4.8 | 0.00 | 0.00 | 0.00 | 52 | 1019.8 |
| 20260502052020 | 13 | 270 | 1.6 | 3.2 | 0.00 | 0.00 | 0.00 | 52 | 1019.7 |
| 20260502051016 | 13 | 293 | 1.6 | 4.8 | 0.00 | 0.00 | 0.00 | 52 | 1019.7 |
| 20260502050026 | 13 | 293 | 0.0 | 3.2 | 0.00 | 0.00 | 0.00 | 52 | 1019.6 |
| 20260502045029 | 13 | 276 | 1.6 | 3.2 | 0.00 | 0.00 | 0.00 | 51 | 1019.6 |
| 20260502044052 | 13 | 235 | 1.6 | 4.8 | 0.00 | 0.00 | 0.00 | 51 | 1019.5 |
| 20260502043017 | 13 | 293 | 0.0 | 3.2 | 0.00 | 0.00 | 0.00 | 51 | 1019.4 |
| 20260502042020 | 13 | 0.0 | 0.0 | 0.00 | 0.00 | 0.00 | 51 | 1019.3 | |
| 20260502041028 | 14 | 270 | 0.0 | 1.6 | 0.00 | 0.00 | 0.00 | 51 | 1019.2 |
| 20260502040026 | 14 | 274 | 1.6 | 4.8 | 0.00 | 0.00 | 0.00 | 50 | 1019.2 |
| 20260502035029 | 14 | 5 | 1.6 | 4.8 | 0.00 | 0.00 | 0.00 | 50 | 1019.2 |
| 20260502034033 | 14 | 316 | 1.6 | 3.2 | 0.00 | 0.00 | 0.00 | 50 | 1019.1 |
| 20260502033018 | 14 | 32 | 3.2 | 8.0 | 0.00 | 0.00 | 0.00 | 50 | 1019.0 |
| 20260502032107 | 14 | 66 | 3.2 | 4.8 | 0.00 | 0.00 | 0.00 | 51 | 1019.0 |
| 20260502031024 | 14 | 19 | 1.6 | 3.2 | 0.00 | 0.00 | 0.00 | 52 | 1019.2 |
| 20260502030027 | 14 | 109 | 1.6 | 3.2 | 0.00 | 0.00 | 0.00 | 53 | 1019.2 |
| 20260502025030 | 14 | 83 | 0.0 | 4.8 | 0.00 | 0.00 | 0.00 | 53 | 1019.7 |
| 20260502024015 | 14 | 158 | 0.0 | 1.6 | 0.00 | 0.00 | 0.00 | 52 | 1019.8 |
| 20260502023038 | 14 | 0.0 | 1.6 | 0.00 | 0.00 | 0.00 | 52 | 1020.0 | |
| 20260502022021 | 15 | 0.0 | 0.0 | 0.00 | 0.00 | 0.00 | 50 | 1020.1 | |
| 20260502021025 | 15 | 0.0 | 0.0 | 0.00 | 0.00 | 0.00 | 49 | 1020.1 | |
| 20260502020022 | 15 | 293 | 0.0 | 3.2 | 0.00 | 0.00 | 0.00 | 48 | 1019.7 |
| 20260502015039 | 15 | 304 | 0.0 | 3.2 | 0.00 | 0.00 | 0.00 | 47 | 1019.7 |
| 20260502014016 | 15 | 0.0 | 0.0 | 0.00 | 0.00 | 0.00 | 48 | 1019.6 | |
| 20260502013019 | 16 | 248 | 0.0 | 1.6 | 0.00 | 0.00 | 0.00 | 46 | 1019.1 |
| 20260502012022 | 16 | 270 | 0.0 | 1.6 | 0.00 | 0.00 | 0.00 | 46 | 1018.8 |
| 20260502011025 | 16 | 0.0 | 0.0 | 0.00 | 0.00 | 0.00 | 44 | 1018.6 | |
| 20260502010028 | 16 | 82 | 1.6 | 4.8 | 0.00 | 0.00 | 0.00 | 44 | 1018.6 |
| 20260502005052 | 17 | 63 | 1.6 | 3.2 | 0.00 | 0.00 | 0.00 | 43 | 1018.4 |